sensor_id;sensor_type;location;lat;lon;timestamp;P1;P2;P0
29460;PMS7003;16428;47.836;35.106;2023-06-04T00:00:08;0.75;0.75;0.75
29460;PMS7003;16428;47.836;35.106;2023-06-04T00:02:36;2.00;2.00;1.50
29460;PMS7003;16428;47.836;35.106;2023-06-04T00:05:04;2.50;2.00;2.00
29460;PMS7003;16428;47.836;35.106;2023-06-04T00:07:32;1.50;1.50;1.00
29460;PMS7003;16428;47.836;35.106;2023-06-04T00:09:59;3.75;1.25;1.00
29460;PMS7003;16428;47.836;35.106;2023-06-04T00:12:26;2.00;2.00;1.00
29460;PMS7003;16428;47.836;35.106;2023-06-04T00:14:53;2.00;2.00;2.00
29460;PMS7003;16428;47.836;35.106;2023-06-04T00:17:20;2.00;2.00;2.00
29460;PMS7003;16428;47.836;35.106;2023-06-04T00:19:47;2.00;2.00;1.25
29460;PMS7003;16428;47.836;35.106;2023-06-04T00:22:14;2.75;2.75;2.75
29460;PMS7003;16428;47.836;35.106;2023-06-04T00:24:41;1.50;1.50;1.25
29460;PMS7003;16428;47.836;35.106;2023-06-04T00:27:09;1.00;1.00;1.00
29460;PMS7003;16428;47.836;35.106;2023-06-04T00:29:37;2.00;2.00;1.75
29460;PMS7003;16428;47.836;35.106;2023-06-04T00:32:04;3.50;1.75;1.00
29460;PMS7003;16428;47.836;35.106;2023-06-04T00:34:32;5.00;3.00;2.00
29460;PMS7003;16428;47.836;35.106;2023-06-04T00:36:59;2.00;2.00;1.50
29460;PMS7003;16428;47.836;35.106;2023-06-04T00:39:28;3.00;3.00;2.00
29460;PMS7003;16428;47.836;35.106;2023-06-04T00:41:56;3.25;2.00;1.50
29460;PMS7003;16428;47.836;35.106;2023-06-04T00:44:23;5.75;3.00;3.00
29460;PMS7003;16428;47.836;35.106;2023-06-04T00:46:52;5.50;4.00;3.50
29460;PMS7003;16428;47.836;35.106;2023-06-04T00:49:20;3.25;3.25;3.00
29460;PMS7003;16428;47.836;35.106;2023-06-04T00:51:48;4.25;4.00;3.75
29460;PMS7003;16428;47.836;35.106;2023-06-04T00:54:15;6.25;5.50;4.50
29460;PMS7003;16428;47.836;35.106;2023-06-04T00:56:44;6.00;4.00;3.00
29460;PMS7003;16428;47.836;35.106;2023-06-04T00:59:11;4.00;2.00;1.00
29460;PMS7003;16428;47.836;35.106;2023-06-04T01:04:25;1.75;0.50;0.00
29460;PMS7003;16428;47.836;35.106;2023-06-04T01:06:57;5.25;4.75;3.75
29460;PMS7003;16428;47.836;35.106;2023-06-04T01:09:30;4.25;4.25;3.50
29460;PMS7003;16428;47.836;35.106;2023-06-04T01:11:58;4.25;2.25;2.25
29460;PMS7003;16428;47.836;35.106;2023-06-04T01:14:25;5.25;4.75;3.50
29460;PMS7003;16428;47.836;35.106;2023-06-04T01:16:55;6.00;3.50;3.00
29460;PMS7003;16428;47.836;35.106;2023-06-04T01:24:59;5.50;4.00;2.50
29460;PMS7003;16428;47.836;35.106;2023-06-04T01:27:30;5.25;3.50;3.00
29460;PMS7003;16428;47.836;35.106;2023-06-04T01:29:59;7.67;5.33;5.00
29460;PMS7003;16428;47.836;35.106;2023-06-04T01:32:28;5.67;5.67;4.33
29460;PMS7003;16428;47.836;35.106;2023-06-04T01:34:56;6.33;4.67;4.00
29460;PMS7003;16428;47.836;35.106;2023-06-04T01:37:24;6.00;4.00;4.00
29460;PMS7003;16428;47.836;35.106;2023-06-04T01:39:51;4.00;4.00;3.00
29460;PMS7003;16428;47.836;35.106;2023-06-04T01:42:18;5.00;5.00;3.67
29460;PMS7003;16428;47.836;35.106;2023-06-04T01:44:45;6.00;6.00;4.33
29460;PMS7003;16428;47.836;35.106;2023-06-04T01:47:12;4.67;4.33;3.33
29460;PMS7003;16428;47.836;35.106;2023-06-04T01:49:39;6.25;6.25;5.50
29460;PMS7003;16428;47.836;35.106;2023-06-04T01:52:07;10.00;5.00;4.67
29460;PMS7003;16428;47.836;35.106;2023-06-04T01:54:35;6.33;4.00;4.00
29460;PMS7003;16428;47.836;35.106;2023-06-04T01:57:02;6.67;5.67;5.00
29460;PMS7003;16428;47.836;35.106;2023-06-04T01:59:30;2.33;2.33;2.33
29460;PMS7003;16428;47.836;35.106;2023-06-04T02:01:58;4.00;4.00;3.00
29460;PMS7003;16428;47.836;35.106;2023-06-04T02:04:25;3.25;3.25;3.25
29460;PMS7003;16428;47.836;35.106;2023-06-04T02:06:52;4.67;3.67;2.33
29460;PMS7003;16428;47.836;35.106;2023-06-04T02:09:20;3.25;3.00;3.00
29460;PMS7003;16428;47.836;35.106;2023-06-04T02:11:47;2.00;2.00;2.00
29460;PMS7003;16428;47.836;35.106;2023-06-04T02:14:14;4.75;4.50;3.25
29460;PMS7003;16428;47.836;35.106;2023-06-04T02:16:41;5.00;3.50;3.00
29460;PMS7003;16428;47.836;35.106;2023-06-04T02:19:08;5.00;5.00;4.00
29460;PMS7003;16428;47.836;35.106;2023-06-04T02:21:39;11.33;9.00;6.33
29460;PMS7003;16428;47.836;35.106;2023-06-04T02:24:06;5.67;5.00;3.67
29460;PMS7003;16428;47.836;35.106;2023-06-04T02:26:34;6.67;6.67;5.67
29460;PMS7003;16428;47.836;35.106;2023-06-04T02:29:01;7.00;7.00;5.00
29460;PMS7003;16428;47.836;35.106;2023-06-04T02:31:28;9.67;7.00;6.00
29460;PMS7003;16428;47.836;35.106;2023-06-04T02:33:56;12.00;10.00;7.00
29460;PMS7003;16428;47.836;35.106;2023-06-04T02:36:23;8.00;6.00;5.00
29460;PMS7003;16428;47.836;35.106;2023-06-04T02:38:50;6.00;6.00;5.33
29460;PMS7003;16428;47.836;35.106;2023-06-04T02:41:17;7.67;6.33;5.67
29460;PMS7003;16428;47.836;35.106;2023-06-04T02:43:45;5.67;4.00;3.00
29460;PMS7003;16428;47.836;35.106;2023-06-04T02:46:12;6.67;5.67;5.00
29460;PMS7003;16428;47.836;35.106;2023-06-04T02:48:39;4.33;4.00;3.00
29460;PMS7003;16428;47.836;35.106;2023-06-04T02:51:06;5.50;3.75;3.00
29460;PMS7003;16428;47.836;35.106;2023-06-04T02:53:37;8.00;4.00;3.00
29460;PMS7003;16428;47.836;35.106;2023-06-04T02:56:04;8.33;7.67;5.00
29460;PMS7003;16428;47.836;35.106;2023-06-04T02:58:32;5.00;5.00;4.67
29460;PMS7003;16428;47.836;35.106;2023-06-04T03:01:05;10.67;9.00;7.00
29460;PMS7003;16428;47.836;35.106;2023-06-04T03:03:35;8.67;7.00;6.67
29460;PMS7003;16428;47.836;35.106;2023-06-04T03:06:02;4.33;4.33;3.33
29460;PMS7003;16428;47.836;35.106;2023-06-04T03:08:31;8.67;7.67;6.00
29460;PMS7003;16428;47.836;35.106;2023-06-04T03:10:58;7.33;7.33;6.33
29460;PMS7003;16428;47.836;35.106;2023-06-04T03:13:26;7.67;6.67;5.33
29460;PMS7003;16428;47.836;35.106;2023-06-04T03:15:53;11.00;6.00;6.00
29460;PMS7003;16428;47.836;35.106;2023-06-04T03:18:22;7.67;7.00;6.33
29460;PMS7003;16428;47.836;35.106;2023-06-04T03:20:49;6.67;5.00;4.00
29460;PMS7003;16428;47.836;35.106;2023-06-04T03:23:16;6.00;6.00;5.00
29460;PMS7003;16428;47.836;35.106;2023-06-04T03:25:43;5.67;5.67;5.33
29460;PMS7003;16428;47.836;35.106;2023-06-04T03:28:11;6.00;4.33;3.00
29460;PMS7003;16428;47.836;35.106;2023-06-04T03:30:38;7.67;6.00;4.67
29460;PMS7003;16428;47.836;35.106;2023-06-04T03:33:07;8.00;6.00;5.67
29460;PMS7003;16428;47.836;35.106;2023-06-04T03:35:35;9.33;6.33;5.00
29460;PMS7003;16428;47.836;35.106;2023-06-04T03:38:02;5.00;5.00;4.00
29460;PMS7003;16428;47.836;35.106;2023-06-04T03:40:29;9.33;8.33;6.33
29460;PMS7003;16428;47.836;35.106;2023-06-04T03:42:56;11.50;5.75;5.00
29460;PMS7003;16428;47.836;35.106;2023-06-04T03:45:23;7.50;6.25;5.25
29460;PMS7003;16428;47.836;35.106;2023-06-04T03:47:50;5.50;3.00;2.75
29460;PMS7003;16428;47.836;35.106;2023-06-04T03:50:18;7.00;7.00;6.00
29460;PMS7003;16428;47.836;35.106;2023-06-04T03:52:47;13.75;6.25;6.00
29460;PMS7003;16428;47.836;35.106;2023-06-04T03:55:15;9.00;7.25;6.00
29460;PMS7003;16428;47.836;35.106;2023-06-04T03:57:43;7.00;6.00;4.75
29460;PMS7003;16428;47.836;35.106;2023-06-04T04:00:10;11.75;7.00;6.25
29460;PMS7003;16428;47.836;35.106;2023-06-04T04:02:39;4.75;4.75;4.25
29460;PMS7003;16428;47.836;35.106;2023-06-04T04:05:08;5.25;5.25;3.25
29460;PMS7003;16428;47.836;35.106;2023-06-04T04:07:36;8.25;6.00;5.00
29460;PMS7003;16428;47.836;35.106;2023-06-04T04:10:03;4.50;4.50;4.25
29460;PMS7003;16428;47.836;35.106;2023-06-04T04:12:32;6.75;5.25;3.75
29460;PMS7003;16428;47.836;35.106;2023-06-04T04:15:00;2.00;2.00;2.00
29460;PMS7003;16428;47.836;35.106;2023-06-04T04:17:27;4.50;4.50;3.00
29460;PMS7003;16428;47.836;35.106;2023-06-04T04:19:54;10.75;10.25;8.00
29460;PMS7003;16428;47.836;35.106;2023-06-04T04:22:22;2.75;2.25;2.00
29460;PMS7003;16428;47.836;35.106;2023-06-04T04:24:49;4.00;3.00;2.25
29460;PMS7003;16428;47.836;35.106;2023-06-04T04:31:43;9.50;6.00;4.50
29460;PMS7003;16428;47.836;35.106;2023-06-04T04:34:10;7.25;6.25;4.00
29460;PMS7003;16428;47.836;35.106;2023-06-04T04:36:38;5.25;3.50;3.00
29460;PMS7003;16428;47.836;35.106;2023-06-04T04:39:07;1.75;1.75;1.00
29460;PMS7003;16428;47.836;35.106;2023-06-04T04:41:34;3.50;3.50;3.25
29460;PMS7003;16428;47.836;35.106;2023-06-04T04:44:02;8.00;6.00;4.25
29460;PMS7003;16428;47.836;35.106;2023-06-04T04:46:32;5.00;5.00;4.25
29460;PMS7003;16428;47.836;35.106;2023-06-04T04:48:59;8.00;4.75;4.75
29460;PMS7003;16428;47.836;35.106;2023-06-04T04:51:26;7.00;6.50;5.00
29460;PMS7003;16428;47.836;35.106;2023-06-04T04:53:53;3.75;3.75;3.75
29460;PMS7003;16428;47.836;35.106;2023-06-04T04:56:21;9.00;4.25;4.00
29460;PMS7003;16428;47.836;35.106;2023-06-04T04:58:49;2.75;2.75;2.00
29460;PMS7003;16428;47.836;35.106;2023-06-04T05:01:16;5.25;2.50;1.00
29460;PMS7003;16428;47.836;35.106;2023-06-04T05:03:43;4.50;3.00;2.50
29460;PMS7003;16428;47.836;35.106;2023-06-04T05:06:12;1.25;1.25;1.00
29460;PMS7003;16428;47.836;35.106;2023-06-04T05:08:39;2.75;2.75;2.00
29460;PMS7003;16428;47.836;35.106;2023-06-04T05:11:08;5.25;3.00;2.00
29460;PMS7003;16428;47.836;35.106;2023-06-04T05:13:37;4.75;3.75;2.00
29460;PMS7003;16428;47.836;35.106;2023-06-04T05:16:04;1.00;1.00;1.00
29460;PMS7003;16428;47.836;35.106;2023-06-04T05:18:34;2.00;2.00;1.50
29460;PMS7003;16428;47.836;35.106;2023-06-04T05:21:01;1.25;0.25;0.25
29460;PMS7003;16428;47.836;35.106;2023-06-04T05:23:29;2.00;2.00;1.25
29460;PMS7003;16428;47.836;35.106;2023-06-04T05:26:01;3.50;3.50;2.75
29460;PMS7003;16428;47.836;35.106;2023-06-04T05:28:28;3.25;3.25;3.00
29460;PMS7003;16428;47.836;35.106;2023-06-04T05:30:55;7.50;5.00;4.00
29460;PMS7003;16428;47.836;35.106;2023-06-04T05:33:26;2.50;2.50;1.75
29460;PMS7003;16428;47.836;35.106;2023-06-04T05:35:53;2.25;2.25;2.00
29460;PMS7003;16428;47.836;35.106;2023-06-04T05:38:22;5.75;3.25;2.75
29460;PMS7003;16428;47.836;35.106;2023-06-04T05:40:56;3.00;3.00;2.00
29460;PMS7003;16428;47.836;35.106;2023-06-04T05:43:23;1.75;1.00;0.50
29460;PMS7003;16428;47.836;35.106;2023-06-04T05:45:50;2.25;2.25;2.00
29460;PMS7003;16428;47.836;35.106;2023-06-04T05:48:21;8.25;8.25;6.50
29460;PMS7003;16428;47.836;35.106;2023-06-04T05:50:48;10.00;7.00;6.00
29460;PMS7003;16428;47.836;35.106;2023-06-04T05:53:15;3.50;3.50;3.00
29460;PMS7003;16428;47.836;35.106;2023-06-04T05:55:43;6.75;6.00;5.00
29460;PMS7003;16428;47.836;35.106;2023-06-04T05:58:10;1.00;1.00;0.75
29460;PMS7003;16428;47.836;35.106;2023-06-04T06:00:37;1.75;1.75;1.00
29460;PMS7003;16428;47.836;35.106;2023-06-04T06:03:04;5.00;3.00;2.00
29460;PMS7003;16428;47.836;35.106;2023-06-04T06:05:33;4.00;2.25;2.00
29460;PMS7003;16428;47.836;35.106;2023-06-04T06:08:00;0.75;0.75;0.75
29460;PMS7003;16428;47.836;35.106;2023-06-04T06:10:29;2.50;1.50;1.00
29460;PMS7003;16428;47.836;35.106;2023-06-04T06:12:56;1.75;1.75;1.25
29460;PMS7003;16428;47.836;35.106;2023-06-04T06:15:23;3.00;2.50;1.75
29460;PMS7003;16428;47.836;35.106;2023-06-04T06:17:50;1.25;1.25;1.00
29460;PMS7003;16428;47.836;35.106;2023-06-04T06:20:18;0.50;0.50;0.50
29460;PMS7003;16428;47.836;35.106;2023-06-04T06:22:45;3.00;1.00;1.00
29460;PMS7003;16428;47.836;35.106;2023-06-04T06:25:12;3.00;3.00;2.25
29460;PMS7003;16428;47.836;35.106;2023-06-04T06:27:40;0.25;0.25;0.25
29460;PMS7003;16428;47.836;35.106;2023-06-04T06:30:07;1.75;1.75;1.75
29460;PMS7003;16428;47.836;35.106;2023-06-04T06:32:37;3.00;3.00;2.75
29460;PMS7003;16428;47.836;35.106;2023-06-04T06:35:05;4.00;4.00;3.50
29460;PMS7003;16428;47.836;35.106;2023-06-04T06:37:34;3.00;2.50;1.75
29460;PMS7003;16428;47.836;35.106;2023-06-04T06:40:01;3.75;2.00;1.50
29460;PMS7003;16428;47.836;35.106;2023-06-04T06:42:32;7.00;7.00;6.00
29460;PMS7003;16428;47.836;35.106;2023-06-04T06:45:01;7.75;7.75;6.00
29460;PMS7003;16428;47.836;35.106;2023-06-04T06:47:29;2.00;2.00;1.75
29460;PMS7003;16428;47.836;35.106;2023-06-04T06:49:56;2.75;2.75;1.75
29460;PMS7003;16428;47.836;35.106;2023-06-04T06:52:23;6.00;6.00;4.75
29460;PMS7003;16428;47.836;35.106;2023-06-04T06:54:51;5.50;4.75;3.75
29460;PMS7003;16428;47.836;35.106;2023-06-04T06:57:19;8.25;7.50;6.75
29460;PMS7003;16428;47.836;35.106;2023-06-04T06:59:46;19.75;18.75;14.00
29460;PMS7003;16428;47.836;35.106;2023-06-04T07:02:13;8.25;7.00;6.50
29460;PMS7003;16428;47.836;35.106;2023-06-04T07:04:40;4.75;3.50;2.00
29460;PMS7003;16428;47.836;35.106;2023-06-04T07:07:08;1.00;1.00;0.25
29460;PMS7003;16428;47.836;35.106;2023-06-04T07:09:35;8.00;4.50;3.50
29460;PMS7003;16428;47.836;35.106;2023-06-04T07:12:02;5.50;2.75;1.25
29460;PMS7003;16428;47.836;35.106;2023-06-04T07:14:30;6.00;6.00;5.25
29460;PMS7003;16428;47.836;35.106;2023-06-04T07:16:57;5.25;1.50;1.25
29460;PMS7003;16428;47.836;35.106;2023-06-04T07:19:24;4.00;4.00;3.00
29460;PMS7003;16428;47.836;35.106;2023-06-04T07:21:53;16.75;15.00;11.25
29460;PMS7003;16428;47.836;35.106;2023-06-04T07:24:21;18.75;14.75;11.75
29460;PMS7003;16428;47.836;35.106;2023-06-04T07:26:48;29.00;26.50;19.50
29460;PMS7003;16428;47.836;35.106;2023-06-04T07:29:16;10.75;7.00;6.00
29460;PMS7003;16428;47.836;35.106;2023-06-04T07:31:43;6.20;4.20;3.40
29460;PMS7003;16428;47.836;35.106;2023-06-04T07:34:11;22.75;19.25;14.00
29460;PMS7003;16428;47.836;35.106;2023-06-04T07:36:38;2.80;2.00;1.60
29460;PMS7003;16428;47.836;35.106;2023-06-04T07:39:05;8.20;6.60;5.40
29460;PMS7003;16428;47.836;35.106;2023-06-04T07:41:32;3.40;3.00;2.20
29460;PMS7003;16428;47.836;35.106;2023-06-04T07:43:59;2.80;2.80;2.40
29460;PMS7003;16428;47.836;35.106;2023-06-04T07:46:27;0.20;0.20;0.00
29460;PMS7003;16428;47.836;35.106;2023-06-04T07:48:54;1.00;1.00;1.00
29460;PMS7003;16428;47.836;35.106;2023-06-04T07:51:21;3.80;1.20;1.20
29460;PMS7003;16428;47.836;35.106;2023-06-04T07:53:49;1.60;1.60;1.60
29460;PMS7003;16428;47.836;35.106;2023-06-04T07:56:17;1.00;1.00;1.00
29460;PMS7003;16428;47.836;35.106;2023-06-04T07:58:45;0.80;0.80;0.80
29460;PMS7003;16428;47.836;35.106;2023-06-04T08:01:13;0.00;0.00;0.00
29460;PMS7003;16428;47.836;35.106;2023-06-04T08:03:40;4.20;1.20;1.00
29460;PMS7003;16428;47.836;35.106;2023-06-04T08:06:09;2.60;2.40;2.00
29460;PMS7003;16428;47.836;35.106;2023-06-04T08:08:36;3.40;3.40;2.60
29460;PMS7003;16428;47.836;35.106;2023-06-04T08:11:03;12.40;7.40;4.80
29460;PMS7003;16428;47.836;35.106;2023-06-04T08:13:32;12.60;8.00;6.20
29460;PMS7003;16428;47.836;35.106;2023-06-04T08:15:59;3.00;3.00;3.00
29460;PMS7003;16428;47.836;35.106;2023-06-04T08:18:27;3.60;3.60;3.40
29460;PMS7003;16428;47.836;35.106;2023-06-04T08:20:54;8.60;7.20;6.00
29460;PMS7003;16428;47.836;35.106;2023-06-04T08:23:21;12.40;11.00;9.00
29460;PMS7003;16428;47.836;35.106;2023-06-04T08:25:48;6.80;6.80;5.40
29460;PMS7003;16428;47.836;35.106;2023-06-04T08:28:17;1.20;0.20;0.20
29460;PMS7003;16428;47.836;35.106;2023-06-04T08:30:46;0.40;0.40;0.40
29460;PMS7003;16428;47.836;35.106;2023-06-04T08:33:14;9.60;9.60;8.80
29460;PMS7003;16428;47.836;35.106;2023-06-04T08:35:41;8.80;6.00;4.80
29460;PMS7003;16428;47.836;35.106;2023-06-04T08:38:08;1.00;1.00;1.00
29460;PMS7003;16428;47.836;35.106;2023-06-04T08:40:36;1.40;1.40;1.40
29460;PMS7003;16428;47.836;35.106;2023-06-04T08:43:03;1.00;1.00;1.00
29460;PMS7003;16428;47.836;35.106;2023-06-04T08:45:37;1.40;1.00;1.00
29460;PMS7003;16428;47.836;35.106;2023-06-04T08:48:09;1.00;1.00;1.00
29460;PMS7003;16428;47.836;35.106;2023-06-04T08:50:40;0.80;0.80;0.00
29460;PMS7003;16428;47.836;35.106;2023-06-04T08:53:11;0.40;0.40;0.40
29460;PMS7003;16428;47.836;35.106;2023-06-04T08:55:42;0.20;0.20;0.20
29460;PMS7003;16428;47.836;35.106;2023-06-04T08:58:10;1.60;1.20;0.40
29460;PMS7003;16428;47.836;35.106;2023-06-04T09:00:37;0.60;0.60;0.40
29460;PMS7003;16428;47.836;35.106;2023-06-04T09:03:04;1.00;1.00;1.00
29460;PMS7003;16428;47.836;35.106;2023-06-04T09:05:32;1.20;1.20;1.00
29460;PMS7003;16428;47.836;35.106;2023-06-04T09:08:01;0.60;0.60;0.40
29460;PMS7003;16428;47.836;35.106;2023-06-04T09:10:35;0.80;0.80;0.40
29460;PMS7003;16428;47.836;35.106;2023-06-04T09:13:06;0.20;0.20;0.00
29460;PMS7003;16428;47.836;35.106;2023-06-04T09:15:35;0.00;0.00;0.00
29460;PMS7003;16428;47.836;35.106;2023-06-04T09:18:02;8.20;7.20;6.20
29460;PMS7003;16428;47.836;35.106;2023-06-04T09:20:29;2.40;0.00;0.00
29460;PMS7003;16428;47.836;35.106;2023-06-04T09:22:57;2.80;0.60;0.40
29460;PMS7003;16428;47.836;35.106;2023-06-04T09:25:25;1.80;0.60;0.20
29460;PMS7003;16428;47.836;35.106;2023-06-04T09:27:54;0.00;0.00;0.00
29460;PMS7003;16428;47.836;35.106;2023-06-04T09:30:24;0.00;0.00;0.00
29460;PMS7003;16428;47.836;35.106;2023-06-04T09:32:52;0.80;0.80;0.80
29460;PMS7003;16428;47.836;35.106;2023-06-04T09:35:20;0.40;0.40;0.00
29460;PMS7003;16428;47.836;35.106;2023-06-04T09:37:56;0.00;0.00;0.00
29460;PMS7003;16428;47.836;35.106;2023-06-04T09:40:34;0.20;0.20;0.00
29460;PMS7003;16428;47.836;35.106;2023-06-04T09:43:04;2.60;1.00;0.60
29460;PMS7003;16428;47.836;35.106;2023-06-04T09:45:33;5.00;2.80;0.60
29460;PMS7003;16428;47.836;35.106;2023-06-04T09:48:03;0.00;0.00;0.00
29460;PMS7003;16428;47.836;35.106;2023-06-04T09:50:35;0.00;0.00;0.00
29460;PMS7003;16428;47.836;35.106;2023-06-04T09:53:15;0.00;0.00;0.00
29460;PMS7003;16428;47.836;35.106;2023-06-04T09:55:44;0.00;0.00;0.00
29460;PMS7003;16428;47.836;35.106;2023-06-04T09:58:11;2.00;0.00;0.00
29460;PMS7003;16428;47.836;35.106;2023-06-04T10:00:43;0.00;0.00;0.00
29460;PMS7003;16428;47.836;35.106;2023-06-04T10:03:12;0.00;0.00;0.00
29460;PMS7003;16428;47.836;35.106;2023-06-04T10:05:43;0.00;0.00;0.00
29460;PMS7003;16428;47.836;35.106;2023-06-04T10:08:10;2.00;0.40;0.00
29460;PMS7003;16428;47.836;35.106;2023-06-04T10:10:43;0.00;0.00;0.00
29460;PMS7003;16428;47.836;35.106;2023-06-04T10:13:17;0.00;0.00;0.00
29460;PMS7003;16428;47.836;35.106;2023-06-04T10:15:46;0.00;0.00;0.00
29460;PMS7003;16428;47.836;35.106;2023-06-04T10:18:13;0.00;0.00;0.00
29460;PMS7003;16428;47.836;35.106;2023-06-04T10:20:42;0.00;0.00;0.00
29460;PMS7003;16428;47.836;35.106;2023-06-04T10:23:09;0.00;0.00;0.00
29460;PMS7003;16428;47.836;35.106;2023-06-04T10:25:37;0.00;0.00;0.00
29460;PMS7003;16428;47.836;35.106;2023-06-04T10:28:04;0.00;0.00;0.00
29460;PMS7003;16428;47.836;35.106;2023-06-04T10:30:32;0.00;0.00;0.00
29460;PMS7003;16428;47.836;35.106;2023-06-04T10:33:00;0.00;0.00;0.00
29460;PMS7003;16428;47.836;35.106;2023-06-04T10:35:31;0.00;0.00;0.00
29460;PMS7003;16428;47.836;35.106;2023-06-04T10:38:11;3.80;2.00;2.00
29460;PMS7003;16428;47.836;35.106;2023-06-04T10:40:41;1.60;0.00;0.00
29460;PMS7003;16428;47.836;35.106;2023-06-04T10:43:11;0.00;0.00;0.00
29460;PMS7003;16428;47.836;35.106;2023-06-04T10:45:40;0.20;0.20;0.20
29460;PMS7003;16428;47.836;35.106;2023-06-04T10:48:08;0.00;0.00;0.00
29460;PMS7003;16428;47.836;35.106;2023-06-04T10:50:50;0.00;0.00;0.00
29460;PMS7003;16428;47.836;35.106;2023-06-04T10:53:21;0.00;0.00;0.00
29460;PMS7003;16428;47.836;35.106;2023-06-04T10:55:49;1.20;0.00;0.00
29460;PMS7003;16428;47.836;35.106;2023-06-04T10:58:18;0.00;0.00;0.00
29460;PMS7003;16428;47.836;35.106;2023-06-04T11:00:48;0.20;0.20;0.00
29460;PMS7003;16428;47.836;35.106;2023-06-04T11:03:16;0.00;0.00;0.00
29460;PMS7003;16428;47.836;35.106;2023-06-04T11:05:45;0.00;0.00;0.00
29460;PMS7003;16428;47.836;35.106;2023-06-04T11:08:14;0.00;0.00;0.00
29460;PMS7003;16428;47.836;35.106;2023-06-04T11:10:42;0.00;0.00;0.00
29460;PMS7003;16428;47.836;35.106;2023-06-04T11:13:11;0.00;0.00;0.00
29460;PMS7003;16428;47.836;35.106;2023-06-04T11:15:39;0.00;0.00;0.00
29460;PMS7003;16428;47.836;35.106;2023-06-04T11:18:15;0.00;0.00;0.00
29460;PMS7003;16428;47.836;35.106;2023-06-04T11:20:44;2.00;0.20;0.00
29460;PMS7003;16428;47.836;35.106;2023-06-04T11:23:12;0.00;0.00;0.00
29460;PMS7003;16428;47.836;35.106;2023-06-04T11:25:40;0.00;0.00;0.00
29460;PMS7003;16428;47.836;35.106;2023-06-04T11:28:16;0.00;0.00;0.00
29460;PMS7003;16428;47.836;35.106;2023-06-04T11:31:01;0.00;0.00;0.00
29460;PMS7003;16428;47.836;35.106;2023-06-04T11:33:30;0.00;0.00;0.00
29460;PMS7003;16428;47.836;35.106;2023-06-04T11:36:08;0.00;0.00;0.00
29460;PMS7003;16428;47.836;35.106;2023-06-04T11:38:35;0.00;0.00;0.00
29460;PMS7003;16428;47.836;35.106;2023-06-04T11:41:02;3.00;2.00;2.00
29460;PMS7003;16428;47.836;35.106;2023-06-04T11:43:32;0.00;0.00;0.00
29460;PMS7003;16428;47.836;35.106;2023-06-04T11:46:04;1.00;1.00;0.60
29460;PMS7003;16428;47.836;35.106;2023-06-04T11:48:32;0.00;0.00;0.00
29460;PMS7003;16428;47.836;35.106;2023-06-04T11:51:04;4.00;0.00;0.00
29460;PMS7003;16428;47.836;35.106;2023-06-04T11:53:34;0.00;0.00;0.00
29460;PMS7003;16428;47.836;35.106;2023-06-04T11:56:05;0.00;0.00;0.00
29460;PMS7003;16428;47.836;35.106;2023-06-04T11:58:34;0.40;0.00;0.00
29460;PMS7003;16428;47.836;35.106;2023-06-04T12:01:01;1.40;0.00;0.00
29460;PMS7003;16428;47.836;35.106;2023-06-04T12:03:40;0.00;0.00;0.00
29460;PMS7003;16428;47.836;35.106;2023-06-04T12:06:18;3.60;2.60;2.00
29460;PMS7003;16428;47.836;35.106;2023-06-04T12:08:50;8.20;7.20;6.40
29460;PMS7003;16428;47.836;35.106;2023-06-04T12:13:56;1.80;1.80;1.60
29460;PMS7003;16428;47.836;35.106;2023-06-04T12:16:34;1.00;1.00;1.00
29460;PMS7003;16428;47.836;35.106;2023-06-04T12:19:05;1.00;1.00;0.00
29460;PMS7003;16428;47.836;35.106;2023-06-04T12:21:36;2.60;0.80;0.20
29460;PMS7003;16428;47.836;35.106;2023-06-04T12:24:14;0.00;0.00;0.00
29460;PMS7003;16428;47.836;35.106;2023-06-04T12:26:42;2.80;1.60;1.60
29460;PMS7003;16428;47.836;35.106;2023-06-04T12:29:14;0.60;0.60;0.00
29460;PMS7003;16428;47.836;35.106;2023-06-04T12:31:43;0.00;0.00;0.00
29460;PMS7003;16428;47.836;35.106;2023-06-04T12:34:15;0.00;0.00;0.00
29460;PMS7003;16428;47.836;35.106;2023-06-04T12:36:44;0.00;0.00;0.00
29460;PMS7003;16428;47.836;35.106;2023-06-04T12:39:11;3.80;3.40;2.80
29460;PMS7003;16428;47.836;35.106;2023-06-04T12:41:39;7.80;7.80;5.80
29460;PMS7003;16428;47.836;35.106;2023-06-04T12:44:12;12.20;10.20;8.40
29460;PMS7003;16428;47.836;35.106;2023-06-04T12:46:39;6.80;5.40;5.20
29460;PMS7003;16428;47.836;35.106;2023-06-04T12:49:06;1.00;1.00;1.00
29460;PMS7003;16428;47.836;35.106;2023-06-04T12:51:34;2.00;0.80;0.20
29460;PMS7003;16428;47.836;35.106;2023-06-04T12:54:01;1.60;1.60;1.00
29460;PMS7003;16428;47.836;35.106;2023-06-04T12:56:28;4.00;3.00;2.00
29460;PMS7003;16428;47.836;35.106;2023-06-04T12:58:56;1.00;1.00;0.20
29460;PMS7003;16428;47.836;35.106;2023-06-04T13:01:23;0.00;0.00;0.00
29460;PMS7003;16428;47.836;35.106;2023-06-04T13:03:54;0.00;0.00;0.00
29460;PMS7003;16428;47.836;35.106;2023-06-04T13:06:22;0.00;0.00;0.00
29460;PMS7003;16428;47.836;35.106;2023-06-04T13:08:50;1.00;0.00;0.00
29460;PMS7003;16428;47.836;35.106;2023-06-04T13:11:17;1.80;1.00;1.00
29460;PMS7003;16428;47.836;35.106;2023-06-04T13:13:44;1.80;1.00;0.00
29460;PMS7003;16428;47.836;35.106;2023-06-04T13:16:11;0.20;0.00;0.00
29460;PMS7003;16428;47.836;35.106;2023-06-04T13:18:38;0.00;0.00;0.00
29460;PMS7003;16428;47.836;35.106;2023-06-04T13:21:05;0.00;0.00;0.00
29460;PMS7003;16428;47.836;35.106;2023-06-04T13:23:33;0.00;0.00;0.00
29460;PMS7003;16428;47.836;35.106;2023-06-04T13:26:18;0.00;0.00;0.00
29460;PMS7003;16428;47.836;35.106;2023-06-04T13:28:46;0.20;0.20;0.20
29460;PMS7003;16428;47.836;35.106;2023-06-04T13:31:13;3.80;3.80;3.80
29460;PMS7003;16428;47.836;35.106;2023-06-04T13:33:42;5.00;5.00;3.00
29460;PMS7003;16428;47.836;35.106;2023-06-04T13:36:09;2.80;2.80;2.00
29460;PMS7003;16428;47.836;35.106;2023-06-04T13:38:36;0.20;0.20;0.00
29460;PMS7003;16428;47.836;35.106;2023-06-04T13:41:04;2.00;0.00;0.00
29460;PMS7003;16428;47.836;35.106;2023-06-04T13:43:31;4.60;2.60;2.20
29460;PMS7003;16428;47.836;35.106;2023-06-04T13:45:59;3.20;3.20;3.00
29460;PMS7003;16428;47.836;35.106;2023-06-04T13:48:26;6.00;4.00;4.00
29460;PMS7003;16428;47.836;35.106;2023-06-04T13:50:54;3.00;3.00;2.40
29460;PMS7003;16428;47.836;35.106;2023-06-04T13:53:23;2.40;2.40;1.60
29460;PMS7003;16428;47.836;35.106;2023-06-04T13:55:50;1.60;1.60;1.00
29460;PMS7003;16428;47.836;35.106;2023-06-04T13:58:24;12.00;11.20;9.20
29460;PMS7003;16428;47.836;35.106;2023-06-04T14:00:53;2.00;2.00;2.00
29460;PMS7003;16428;47.836;35.106;2023-06-04T14:03:21;1.00;1.00;0.80
29460;PMS7003;16428;47.836;35.106;2023-06-04T14:05:49;1.00;1.00;0.80
29460;PMS7003;16428;47.836;35.106;2023-06-04T14:08:16;0.00;0.00;0.00
29460;PMS7003;16428;47.836;35.106;2023-06-04T14:10:43;1.80;1.80;1.00
29460;PMS7003;16428;47.836;35.106;2023-06-04T14:13:11;8.40;3.40;3.00
29460;PMS7003;16428;47.836;35.106;2023-06-04T14:15:38;5.20;3.20;2.40
29460;PMS7003;16428;47.836;35.106;2023-06-04T14:18:05;0.00;0.00;0.00
29460;PMS7003;16428;47.836;35.106;2023-06-04T14:20:33;2.00;2.00;2.00
29460;PMS7003;16428;47.836;35.106;2023-06-04T14:23:00;2.40;2.00;1.80
29460;PMS7003;16428;47.836;35.106;2023-06-04T14:25:27;0.00;0.00;0.00
29460;PMS7003;16428;47.836;35.106;2023-06-04T14:27:54;1.00;1.00;1.00
29460;PMS7003;16428;47.836;35.106;2023-06-04T14:30:22;2.00;2.00;1.20